PWSweather.com
Personal Weather Stations
Station Observations
ITROMSTR4
From Fagereng Towards West Sandnessundet, TromsoeNO 9013

From Fagereng Towards West SandnessundetTromsoeNO 9013

Lat: 69.644853, Lon: 18.908345

Elevation: 150

Station Type: WH-1080

http://www.hugooien.no/?go=weather

Latest ConditionsUpdated 9:50:00 AM GMT+01:01 Thursday, Dec 12, 2019
Currently Today's Max Today's Min Today's Average
Temperature 37.4°F3.0°C 41.0°F5.0°C 37.0°F2.8°C 39.6°F4.2°C
Dew Point 20.9°F-6.2°C 29.7°F-1.3°C 20.9°F-6.2°C 26.1°F-3.3°C
Winds 9.0 mph S14.5 kmh S 20.2 mph -32.5 kmh - - 9.9 mph 15.9 kmh
Wind Gusts 14.5 mph23.3 kmh 32.7 mph52.6 kmh - -
Humidity 51% 68% 51% 58%
Pressure 30.00 in1015.9 mb 30.00 in1015.9 mb 29.93 in1013.5 mb -
Precipitation - 0.01 in0.3 mm - -
Hour Temp Dew Point Humidity Winds Wind Gusts Pressure Precip Precip Rate Daily Precip Total
09:50 AM 37.4°F3.0°C 20.9°F-6.2°C 51% 9.0 mph S14.5 kmh S 14.5 mph23.3 kmh 30.00 in1015.9 mb 0.00 in0.0 mm 0.00 in0.0 mm 0.01 in0.3 mm
09:45 AM 37.4°F3.0°C 21.4°F-5.9°C 52% 8.6 mph SSE13.8 kmh SSE 15.9 mph25.6 kmh 29.99 in1015.6 mb 0.00 in0.0 mm 0.00 in0.0 mm 0.01 in0.3 mm
09:40 AM 37.0°F2.8°C 21.5°F-5.8°C 53% 6.1 mph SE9.8 kmh SE 15.9 mph25.6 kmh 29.99 in1015.6 mb 0.00 in0.0 mm 0.00 in0.0 mm 0.01 in0.3 mm
09:35 AM 37.2°F2.9°C 21.7°F-5.7°C 53% 4.5 mph SSE7.2 kmh SSE 9.8 mph15.8 kmh 29.99 in1015.6 mb 0.00 in0.0 mm 0.00 in0.0 mm 0.01 in0.3 mm
09:30 AM 37.4°F3.0°C 21.9°F-5.6°C 53% 4.4 mph SE7.1 kmh SE 9.8 mph15.8 kmh 29.99 in1015.6 mb 0.00 in0.0 mm 0.00 in0.0 mm 0.01 in0.3 mm
09:25 AM 37.4°F3.0°C 21.9°F-5.6°C 53% 3.7 mph SE6.0 kmh SE 7.6 mph12.2 kmh 29.99 in1015.6 mb 0.00 in0.0 mm 0.00 in0.0 mm 0.01 in0.3 mm
09:20 AM 37.6°F3.1°C 22.0°F-5.6°C 53% 3.7 mph SE6.0 kmh SE 6.9 mph11.1 kmh 29.99 in1015.6 mb 0.00 in0.0 mm 0.00 in0.0 mm 0.01 in0.3 mm
09:15 AM 37.8°F3.2°C 22.2°F-5.4°C 53% 4.6 mph SE7.4 kmh SE 7.6 mph12.2 kmh 29.98 in1015.2 mb 0.00 in0.0 mm 0.00 in0.0 mm 0.01 in0.3 mm
09:10 AM 38.1°F3.4°C 22.1°F-5.5°C 52% 4.5 mph SE7.2 kmh SE 7.6 mph12.2 kmh 29.98 in1015.2 mb 0.00 in0.0 mm 0.00 in0.0 mm 0.01 in0.3 mm
09:05 AM 38.3°F3.5°C 21.8°F-5.7°C 51% 4.4 mph S7.1 kmh S 8.3 mph13.4 kmh 29.98 in1015.2 mb 0.00 in0.0 mm 0.00 in0.0 mm 0.01 in0.3 mm
09:00 AM 38.7°F3.7°C 22.1°F-5.5°C 51% 5.2 mph S8.4 kmh S 9.2 mph14.8 kmh 29.98 in1015.2 mb 0.00 in0.0 mm 0.00 in0.0 mm 0.01 in0.3 mm
08:55 AM 38.8°F3.8°C 22.3°F-5.4°C 51% 5.8 mph S9.3 kmh S 9.2 mph14.8 kmh 29.98 in1015.2 mb 0.00 in0.0 mm 0.00 in0.0 mm 0.01 in0.3 mm
08:50 AM 39.0°F3.9°C 22.4°F-5.3°C 51% 6.1 mph S9.8 kmh S 10.7 mph17.2 kmh 29.98 in1015.2 mb 0.00 in0.0 mm 0.00 in0.0 mm 0.01 in0.3 mm
08:45 AM 39.2°F4.0°C 22.6°F-5.2°C 51% 5.4 mph S8.7 kmh S 10.7 mph17.2 kmh 29.98 in1015.2 mb 0.00 in0.0 mm 0.00 in0.0 mm 0.01 in0.3 mm
08:40 AM 39.2°F4.0°C 22.6°F-5.2°C 51% 4.7 mph S7.6 kmh S 10.7 mph17.2 kmh 29.98 in1015.2 mb 0.00 in0.0 mm 0.00 in0.0 mm 0.01 in0.3 mm
08:35 AM 39.6°F4.2°C 22.9°F-5.1°C 51% 4.3 mph S6.9 kmh S 9.2 mph14.8 kmh 29.98 in1015.2 mb 0.00 in0.0 mm 0.00 in0.0 mm 0.01 in0.3 mm
08:30 AM 39.9°F4.4°C 23.3°F-4.8°C 51% 4.9 mph SE7.9 kmh SE 9.2 mph14.8 kmh 29.98 in1015.2 mb 0.00 in0.0 mm 0.00 in0.0 mm 0.01 in0.3 mm
08:25 AM 39.2°F4.0°C 23.1°F-4.9°C 52% 4.8 mph SE7.7 kmh SE 9.2 mph14.8 kmh 29.98 in1015.2 mb 0.00 in0.0 mm 0.00 in0.0 mm 0.01 in0.3 mm
08:20 AM 39.0°F3.9°C 23.8°F-4.6°C 54% 3.3 mph SE5.3 kmh SE 5.4 mph8.7 kmh 29.98 in1015.2 mb 0.00 in0.0 mm 0.00 in0.0 mm 0.01 in0.3 mm
08:15 AM 38.5°F3.6°C 23.7°F-4.6°C 55% 2.0 mph SE3.2 kmh SE 3.8 mph6.1 kmh 29.98 in1015.2 mb 0.00 in0.0 mm 0.00 in0.0 mm 0.01 in0.3 mm
08:10 AM 38.1°F3.4°C 23.4°F-4.8°C 55% 1.5 mph E2.4 kmh E 3.1 mph5.0 kmh 29.98 in1015.2 mb 0.00 in0.0 mm 0.00 in0.0 mm 0.01 in0.3 mm
08:05 AM 38.1°F3.4°C 23.4°F-4.8°C 55% 2.1 mph NNE3.4 kmh NNE 3.8 mph6.1 kmh 29.98 in1015.2 mb 0.00 in0.0 mm 0.00 in0.0 mm 0.01 in0.3 mm
08:00 AM 38.3°F3.5°C 23.6°F-4.7°C 55% 3.3 mph N5.3 kmh N 6.9 mph11.1 kmh 29.98 in1015.2 mb 0.00 in0.0 mm 0.00 in0.0 mm 0.01 in0.3 mm
07:55 AM 38.3°F3.5°C 23.6°F-4.7°C 55% 4.6 mph N7.4 kmh N 6.9 mph11.1 kmh 29.97 in1014.9 mb 0.00 in0.0 mm 0.00 in0.0 mm 0.01 in0.3 mm
07:50 AM 38.3°F3.5°C 23.6°F-4.7°C 55% 4.0 mph N6.4 kmh N 6.9 mph11.1 kmh 29.97 in1014.9 mb 0.00 in0.0 mm 0.00 in0.0 mm 0.01 in0.3 mm
07:45 AM 37.9°F3.3°C 23.2°F-4.9°C 55% 2.6 mph N4.2 kmh N 5.4 mph8.7 kmh 29.97 in1014.9 mb 0.00 in0.0 mm 0.00 in0.0 mm 0.01 in0.3 mm
07:40 AM 38.5°F3.6°C 23.3°F-4.8°C 54% 2.9 mph ENE4.7 kmh ENE 6.0 mph9.7 kmh 29.97 in1014.9 mb 0.00 in0.0 mm 0.00 in0.0 mm 0.01 in0.3 mm
07:35 AM 39.2°F4.0°C 23.5°F-4.7°C 53% 4.3 mph SE6.9 kmh SE 8.3 mph13.4 kmh 29.97 in1014.9 mb 0.00 in0.0 mm 0.00 in0.0 mm 0.01 in0.3 mm
07:30 AM 39.7°F4.3°C 23.6°F-4.7°C 52% 5.6 mph SE9.0 kmh SE 9.8 mph15.8 kmh 29.97 in1014.9 mb 0.00 in0.0 mm 0.00 in0.0 mm 0.01 in0.3 mm
07:25 AM 39.9°F4.4°C 23.7°F-4.6°C 52% 6.4 mph S10.3 kmh S 12.1 mph19.5 kmh 29.97 in1014.9 mb 0.00 in0.0 mm 0.00 in0.0 mm 0.01 in0.3 mm
07:20 AM 39.7°F4.3°C 23.6°F-4.7°C 52% 8.3 mph S13.4 kmh S 14.5 mph23.3 kmh 29.96 in1014.6 mb 0.00 in0.0 mm 0.00 in0.0 mm 0.01 in0.3 mm
07:15 AM 39.7°F4.3°C 23.6°F-4.7°C 52% 8.6 mph S13.8 kmh S 15.2 mph24.5 kmh 29.97 in1014.9 mb 0.00 in0.0 mm 0.00 in0.0 mm 0.01 in0.3 mm
07:10 AM 39.6°F4.2°C 23.4°F-4.8°C 52% 7.2 mph S11.6 kmh S 15.2 mph24.5 kmh 29.97 in1014.9 mb 0.00 in0.0 mm 0.00 in0.0 mm 0.01 in0.3 mm
07:00 AM 39.4°F4.1°C 23.7°F-4.6°C 53% 6.0 mph S9.7 kmh S 10.7 mph17.2 kmh 29.97 in1014.9 mb 0.00 in0.0 mm 0.00 in0.0 mm 0.01 in0.3 mm
06:55 AM 39.2°F4.0°C 24.0°F-4.4°C 54% 5.9 mph S9.5 kmh S 10.7 mph17.2 kmh 29.98 in1015.2 mb 0.00 in0.0 mm 0.00 in0.0 mm 0.01 in0.3 mm
06:50 AM 39.4°F4.1°C 24.1°F-4.4°C 54% 5.4 mph S8.7 kmh S 9.2 mph14.8 kmh 29.97 in1014.9 mb 0.00 in0.0 mm 0.00 in0.0 mm 0.01 in0.3 mm
06:45 AM 39.4°F4.1°C 25.0°F-3.9°C 56% 5.4 mph S8.7 kmh S 11.4 mph18.3 kmh 29.97 in1014.9 mb 0.00 in0.0 mm 0.00 in0.0 mm 0.01 in0.3 mm
06:40 AM 39.6°F4.2°C 25.6°F-3.6°C 57% 5.3 mph SSE8.5 kmh SSE 11.4 mph18.3 kmh 29.98 in1015.2 mb 0.00 in0.0 mm 0.00 in0.0 mm 0.01 in0.3 mm
06:35 AM 39.7°F4.3°C 25.3°F-3.7°C 56% 5.1 mph SSE8.2 kmh SSE 9.2 mph14.8 kmh 29.98 in1015.2 mb 0.00 in0.0 mm 0.00 in0.0 mm 0.01 in0.3 mm
06:30 AM 39.7°F4.3°C 25.3°F-3.7°C 56% 5.4 mph SSE8.7 kmh SSE 9.2 mph14.8 kmh 29.98 in1015.2 mb 0.00 in0.0 mm 0.00 in0.0 mm 0.01 in0.3 mm
06:25 AM 39.7°F4.3°C 25.3°F-3.7°C 56% 5.6 mph SSE9.0 kmh SSE 9.8 mph15.8 kmh 29.98 in1015.2 mb 0.00 in0.0 mm 0.00 in0.0 mm 0.01 in0.3 mm
06:20 AM 39.9°F4.4°C 25.9°F-3.4°C 57% 6.9 mph SE11.1 kmh SE 12.1 mph19.5 kmh 29.98 in1015.2 mb 0.00 in0.0 mm 0.00 in0.0 mm 0.01 in0.3 mm
06:15 AM 40.1°F4.5°C 26.1°F-3.3°C 57% 8.1 mph SSE13.0 kmh SSE 15.2 mph24.5 kmh 29.98 in1015.2 mb 0.00 in0.0 mm 0.00 in0.0 mm 0.01 in0.3 mm
06:10 AM 40.1°F4.5°C 26.1°F-3.3°C 57% 9.0 mph S14.5 kmh S 19.0 mph30.6 kmh 29.98 in1015.2 mb 0.00 in0.0 mm 0.00 in0.0 mm 0.01 in0.3 mm
06:05 AM 40.1°F4.5°C 25.7°F-3.5°C 56% 9.5 mph S15.3 kmh S 19.0 mph30.6 kmh 29.98 in1015.2 mb 0.00 in0.0 mm 0.00 in0.0 mm 0.01 in0.3 mm
06:00 AM 40.3°F4.6°C 25.4°F-3.7°C 55% 10.3 mph SSE16.6 kmh SSE 16.8 mph27.0 kmh 29.98 in1015.2 mb 0.00 in0.0 mm 0.00 in0.0 mm 0.01 in0.3 mm
05:55 AM 40.3°F4.6°C 25.0°F-3.9°C 54% 10.3 mph SSE16.6 kmh SSE 15.2 mph24.5 kmh 29.97 in1014.9 mb 0.00 in0.0 mm 0.00 in0.0 mm 0.01 in0.3 mm
05:50 AM 40.1°F4.5°C 24.8°F-4.0°C 54% 9.8 mph S15.8 kmh S 15.2 mph24.5 kmh 29.97 in1014.9 mb 0.00 in0.0 mm 0.00 in0.0 mm 0.01 in0.3 mm
05:45 AM 40.1°F4.5°C 25.2°F-3.8°C 55% 9.7 mph SSE15.6 kmh SSE 15.2 mph24.5 kmh 29.97 in1014.9 mb 0.00 in0.0 mm 0.00 in0.0 mm 0.01 in0.3 mm
05:40 AM 40.1°F4.5°C 25.2°F-3.8°C 55% 8.8 mph SSE14.2 kmh SSE 15.2 mph24.5 kmh 29.97 in1014.9 mb 0.00 in0.0 mm 0.00 in0.0 mm 0.01 in0.3 mm
05:35 AM 39.9°F4.4°C 25.5°F-3.6°C 56% 8.7 mph SSE14.0 kmh SSE 13.6 mph21.9 kmh 29.97 in1014.9 mb 0.00 in0.0 mm 0.00 in0.0 mm 0.01 in0.3 mm
05:30 AM 39.9°F4.4°C 25.9°F-3.4°C 57% 9.0 mph SSE14.5 kmh SSE 15.2 mph24.5 kmh 29.97 in1014.9 mb 0.00 in0.0 mm 0.00 in0.0 mm 0.01 in0.3 mm
05:25 AM 39.9°F4.4°C 25.5°F-3.6°C 56% 8.0 mph S12.9 kmh S 15.2 mph24.5 kmh 29.97 in1014.9 mb 0.00 in0.0 mm 0.00 in0.0 mm 0.01 in0.3 mm
05:20 AM 39.7°F4.3°C 25.8°F-3.4°C 57% 7.0 mph S11.3 kmh S 12.1 mph19.5 kmh 29.97 in1014.9 mb 0.00 in0.0 mm 0.00 in0.0 mm 0.01 in0.3 mm
05:15 AM 39.6°F4.2°C 26.0°F-3.3°C 58% 7.0 mph S11.3 kmh S 14.5 mph23.3 kmh 29.98 in1015.2 mb 0.00 in0.0 mm 0.00 in0.0 mm 0.01 in0.3 mm
05:10 AM 39.6°F4.2°C 26.0°F-3.3°C 58% 8.7 mph S14.0 kmh S 15.9 mph25.6 kmh 29.98 in1015.2 mb 0.00 in0.0 mm 0.00 in0.0 mm 0.01 in0.3 mm
05:05 AM 39.7°F4.3°C 25.8°F-3.4°C 57% 10.4 mph S16.7 kmh S 17.4 mph28.0 kmh 29.98 in1015.2 mb 0.00 in0.0 mm 0.00 in0.0 mm 0.01 in0.3 mm
05:00 AM 39.7°F4.3°C 25.8°F-3.4°C 57% 10.2 mph S16.4 kmh S 17.4 mph28.0 kmh 29.98 in1015.2 mb 0.00 in0.0 mm 0.00 in0.0 mm 0.01 in0.3 mm
04:55 AM 39.7°F4.3°C 25.8°F-3.4°C 57% 9.7 mph S15.6 kmh S 17.4 mph28.0 kmh 29.98 in1015.2 mb 0.00 in0.0 mm 0.00 in0.0 mm 0.01 in0.3 mm
04:50 AM 39.6°F4.2°C 25.6°F-3.6°C 57% 10.2 mph S16.4 kmh S 20.6 mph33.2 kmh 29.98 in1015.2 mb 0.00 in0.0 mm 0.00 in0.0 mm 0.01 in0.3 mm
04:45 AM 39.7°F4.3°C 25.8°F-3.4°C 57% 9.9 mph S15.9 kmh S 20.6 mph33.2 kmh 29.98 in1015.2 mb 0.00 in0.0 mm 0.00 in0.0 mm 0.01 in0.3 mm
04:40 AM 39.7°F4.3°C 26.2°F-3.2°C 58% 9.1 mph S14.6 kmh S 15.2 mph24.5 kmh 29.97 in1014.9 mb 0.00 in0.0 mm 0.00 in0.0 mm 0.01 in0.3 mm
04:35 AM 39.7°F4.3°C 26.2°F-3.2°C 58% 9.0 mph S14.5 kmh S 14.5 mph23.3 kmh 29.98 in1015.2 mb 0.00 in0.0 mm 0.00 in0.0 mm 0.01 in0.3 mm
04:30 AM 39.7°F4.3°C 26.6°F-3.0°C 59% 8.3 mph SSE13.4 kmh SSE 13.6 mph21.9 kmh 29.98 in1015.2 mb 0.00 in0.0 mm 0.00 in0.0 mm 0.01 in0.3 mm
04:25 AM 39.6°F4.2°C 26.8°F-2.9°C 60% 8.9 mph S14.3 kmh S 15.2 mph24.5 kmh 29.98 in1015.2 mb 0.00 in0.0 mm 0.00 in0.0 mm 0.01 in0.3 mm
04:20 AM 39.7°F4.3°C 27.4°F-2.6°C 61% 10.5 mph S16.9 kmh S 17.4 mph28.0 kmh 29.98 in1015.2 mb 0.00 in0.0 mm 0.00 in0.0 mm 0.01 in0.3 mm
04:15 AM 39.4°F4.1°C 27.5°F-2.5°C 62% 9.7 mph SW15.6 kmh SW 17.4 mph28.0 kmh 29.99 in1015.6 mb 0.00 in0.0 mm 0.00 in0.0 mm 0.01 in0.3 mm
04:10 AM 39.6°F4.2°C 27.2°F-2.7°C 61% 8.6 mph SW13.8 kmh SW 17.4 mph28.0 kmh 29.98 in1015.2 mb 0.00 in0.0 mm 0.00 in0.0 mm 0.01 in0.3 mm
04:05 AM 39.6°F4.2°C 27.6°F-2.4°C 62% 8.8 mph SSW14.2 kmh SSW 14.5 mph23.3 kmh 29.98 in1015.2 mb 0.00 in0.0 mm 0.00 in0.0 mm 0.01 in0.3 mm
04:00 AM 39.6°F4.2°C 27.6°F-2.4°C 62% 7.6 mph S12.2 kmh S 14.5 mph23.3 kmh 29.98 in1015.2 mb 0.00 in0.0 mm 0.00 in0.0 mm 0.01 in0.3 mm
03:55 AM 39.6°F4.2°C 28.0°F-2.2°C 63% 6.9 mph S11.1 kmh S 13.0 mph20.9 kmh 29.98 in1015.2 mb 0.00 in0.0 mm 0.00 in0.0 mm 0.01 in0.3 mm
03:50 AM 39.6°F4.2°C 28.4°F-2.0°C 64% 6.8 mph S10.9 kmh S 13.0 mph20.9 kmh 29.98 in1015.2 mb 0.00 in0.0 mm 0.00 in0.0 mm 0.01 in0.3 mm
03:45 AM 39.6°F4.2°C 28.8°F-1.8°C 65% 7.6 mph S12.2 kmh S 15.2 mph24.5 kmh 29.99 in1015.6 mb 0.00 in0.0 mm 0.00 in0.0 mm 0.01 in0.3 mm
03:40 AM 39.7°F4.3°C 29.3°F-1.5°C 66% 8.2 mph SSW13.2 kmh SSW 15.2 mph24.5 kmh 29.98 in1015.2 mb 0.00 in0.0 mm 0.00 in0.0 mm 0.01 in0.3 mm
03:35 AM 39.7°F4.3°C 29.7°F-1.3°C 67% 7.2 mph SSW11.6 kmh SSW 11.4 mph18.3 kmh 29.98 in1015.2 mb 0.00 in0.0 mm 0.00 in0.0 mm 0.01 in0.3 mm
03:30 AM 40.1°F4.5°C 29.7°F-1.3°C 66% 7.5 mph SSW12.1 kmh SSW 14.5 mph23.3 kmh 29.99 in1015.6 mb 0.00 in0.0 mm 0.00 in0.0 mm 0.01 in0.3 mm
03:25 AM 40.1°F4.5°C 28.9°F-1.7°C 64% 8.4 mph SSW13.5 kmh SSW 18.3 mph29.5 kmh 29.99 in1015.6 mb 0.00 in0.0 mm 0.00 in0.0 mm 0.01 in0.3 mm
03:20 AM 40.3°F4.6°C 28.3°F-2.1°C 62% 9.8 mph SSW15.8 kmh SSW 18.3 mph29.5 kmh 29.99 in1015.6 mb 0.00 in0.0 mm 0.00 in0.0 mm 0.01 in0.3 mm
03:15 AM 40.5°F4.7°C 28.5°F-1.9°C 62% 12.8 mph S20.6 kmh S 23.5 mph37.8 kmh 29.98 in1015.2 mb 0.00 in0.0 mm 0.00 in0.0 mm 0.01 in0.3 mm
03:10 AM 40.6°F4.8°C 28.7°F-1.8°C 62% 14.3 mph SSE23.0 kmh SSE 23.5 mph37.8 kmh 29.98 in1015.2 mb 0.00 in0.0 mm 0.00 in0.0 mm 0.01 in0.3 mm
03:05 AM 40.6°F4.8°C 28.7°F-1.8°C 62% 14.6 mph SSE23.5 kmh SSE 23.5 mph37.8 kmh 29.98 in1015.2 mb 0.00 in0.0 mm 0.00 in0.0 mm 0.01 in0.3 mm
03:00 AM 40.6°F4.8°C 28.7°F-1.8°C 62% 14.1 mph S22.7 kmh S 21.3 mph34.3 kmh 29.98 in1015.2 mb 0.00 in0.0 mm 0.00 in0.0 mm 0.01 in0.3 mm
02:55 AM 40.5°F4.7°C 28.9°F-1.7°C 63% 12.1 mph S19.5 kmh S 21.3 mph34.3 kmh 29.98 in1015.2 mb 0.00 in0.0 mm 0.00 in0.0 mm 0.01 in0.3 mm
02:50 AM 40.1°F4.5°C 28.9°F-1.7°C 64% 11.7 mph S18.8 kmh S 24.4 mph39.3 kmh 29.98 in1015.2 mb 0.00 in0.0 mm 0.00 in0.0 mm 0.01 in0.3 mm
02:45 AM 40.1°F4.5°C 28.9°F-1.7°C 64% 12.2 mph SE19.6 kmh SE 24.4 mph39.3 kmh 29.98 in1015.2 mb 0.00 in0.0 mm 0.00 in0.0 mm 0.01 in0.3 mm
02:40 AM 40.1°F4.5°C 28.5°F-1.9°C 63% 13.9 mph S22.4 kmh S 25.1 mph40.4 kmh 29.97 in1014.9 mb 0.00 in0.0 mm 0.00 in0.0 mm 0.01 in0.3 mm
02:35 AM 40.3°F4.6°C 28.7°F-1.8°C 63% 16.0 mph S25.7 kmh S 25.9 mph41.7 kmh 29.97 in1014.9 mb 0.00 in0.0 mm 0.00 in0.0 mm 0.01 in0.3 mm
02:30 AM 40.3°F4.6°C 28.7°F-1.8°C 63% 17.3 mph S27.8 kmh S 29.8 mph48.0 kmh 29.98 in1015.2 mb 0.00 in0.0 mm 0.00 in0.0 mm 0.01 in0.3 mm
02:25 AM 40.1°F4.5°C 28.9°F-1.7°C 64% 18.2 mph S29.3 kmh S 29.8 mph48.0 kmh 29.98 in1015.2 mb 0.00 in0.0 mm 0.00 in0.0 mm 0.01 in0.3 mm
02:20 AM 40.3°F4.6°C 28.7°F-1.8°C 63% 19.1 mph S30.7 kmh S 27.3 mph43.9 kmh 29.97 in1014.9 mb 0.00 in0.0 mm 0.00 in0.0 mm 0.01 in0.3 mm
02:15 AM 40.3°F4.6°C 28.7°F-1.8°C 63% 19.5 mph S31.4 kmh S 31.1 mph50.1 kmh 29.97 in1014.9 mb 0.01 in0.3 mm 0.00 in0.0 mm 0.01 in0.3 mm
02:10 AM 40.6°F4.8°C 28.7°F-1.8°C 62% 18.8 mph S30.3 kmh S 31.1 mph50.1 kmh 29.97 in1014.9 mb 0.01 in0.3 mm 0.00 in0.0 mm 0.01 in0.3 mm
02:05 AM 41.0°F5.0°C 28.6°F-1.9°C 61% 17.7 mph SSW28.5 kmh SSW 31.1 mph50.1 kmh 29.97 in1014.9 mb 0.01 in0.3 mm 0.00 in0.0 mm 0.01 in0.3 mm
02:00 AM 41.0°F5.0°C 28.6°F-1.9°C 61% 17.0 mph S27.4 kmh S 26.6 mph42.8 kmh 29.97 in1014.9 mb 0.01 in0.3 mm 0.00 in0.0 mm 0.01 in0.3 mm
01:55 AM 40.8°F4.9°C 28.4°F-2.0°C 61% 16.8 mph S27.0 kmh S 25.9 mph41.7 kmh 29.96 in1014.6 mb 0.01 in0.3 mm 0.00 in0.0 mm 0.01 in0.3 mm
01:50 AM 40.8°F4.9°C 28.4°F-2.0°C 61% 17.9 mph S28.8 kmh S 32.7 mph52.6 kmh 29.96 in1014.6 mb 0.01 in0.3 mm 0.00 in0.0 mm 0.01 in0.3 mm
01:45 AM 41.0°F5.0°C 28.6°F-1.9°C 61% 19.5 mph S31.4 kmh S 32.7 mph52.6 kmh 29.96 in1014.6 mb 0.01 in0.3 mm 0.00 in0.0 mm 0.01 in0.3 mm
01:40 AM 40.8°F4.9°C 28.4°F-2.0°C 61% 20.2 mph S32.5 kmh S 29.8 mph48.0 kmh 29.95 in1014.2 mb 0.01 in0.3 mm 0.00 in0.0 mm 0.01 in0.3 mm
01:35 AM 40.8°F4.9°C 28.4°F-2.0°C 61% 20.2 mph S32.5 kmh S 29.8 mph48.0 kmh 29.96 in1014.6 mb 0.01 in0.3 mm 0.00 in0.0 mm 0.01 in0.3 mm
01:30 AM 40.8°F4.9°C 28.4°F-2.0°C 61% 19.0 mph S30.6 kmh S 28.9 mph46.5 kmh 29.95 in1014.2 mb 0.01 in0.3 mm 0.00 in0.0 mm 0.01 in0.3 mm
01:25 AM 41.0°F5.0°C 28.2°F-2.1°C 60% 19.5 mph S31.4 kmh S 28.9 mph46.5 kmh 29.95 in1014.2 mb 0.01 in0.3 mm 0.00 in0.0 mm 0.01 in0.3 mm
01:20 AM 40.8°F4.9°C 28.4°F-2.0°C 61% 18.2 mph S29.3 kmh S 28.2 mph45.4 kmh 29.95 in1014.2 mb 0.01 in0.3 mm 0.12 in3.0 mm 0.01 in0.3 mm
01:15 AM 40.5°F4.7°C 28.1°F-2.2°C 61% 15.1 mph S24.3 kmh S 25.1 mph40.4 kmh 29.95 in1014.2 mb 0.00 in0.0 mm 0.00 in0.0 mm 0.00 in0.0 mm
01:10 AM 40.5°F4.7°C 28.1°F-2.2°C 61% 15.7 mph SSW25.3 kmh SSW 25.9 mph41.7 kmh 29.95 in1014.2 mb 0.00 in0.0 mm 0.00 in0.0 mm 0.00 in0.0 mm
01:00 AM 40.6°F4.8°C 28.3°F-2.1°C 61% 16.6 mph S26.7 kmh S 25.9 mph41.7 kmh 29.94 in1013.9 mb 0.00 in0.0 mm 0.00 in0.0 mm 0.00 in0.0 mm
12:55 AM 40.5°F4.7°C 28.5°F-1.9°C 62% 15.9 mph S25.6 kmh S 25.1 mph40.4 kmh 29.95 in1014.2 mb 0.00 in0.0 mm 0.00 in0.0 mm 0.00 in0.0 mm
12:50 AM 40.5°F4.7°C 28.5°F-1.9°C 62% 15.7 mph S25.3 kmh S 25.1 mph40.4 kmh 29.95 in1014.2 mb 0.00 in0.0 mm 0.00 in0.0 mm 0.00 in0.0 mm
12:45 AM 40.5°F4.7°C 28.5°F-1.9°C 62% 15.1 mph S24.3 kmh S 23.5 mph37.8 kmh 29.94 in1013.9 mb 0.00 in0.0 mm 0.00 in0.0 mm 0.00 in0.0 mm
12:40 AM 40.6°F4.8°C 28.7°F-1.8°C 62% 14.7 mph S23.7 kmh S 23.5 mph37.8 kmh 29.94 in1013.9 mb 0.00 in0.0 mm 0.00 in0.0 mm 0.00 in0.0 mm
12:35 AM 40.5°F4.7°C 28.5°F-1.9°C 62% 14.0 mph S22.5 kmh S 23.5 mph37.8 kmh 29.94 in1013.9 mb 0.00 in0.0 mm 0.00 in0.0 mm 0.00 in0.0 mm
12:30 AM 40.3°F4.6°C 28.7°F-1.8°C 63% 13.8 mph SSW22.2 kmh SSW 23.5 mph37.8 kmh 29.94 in1013.9 mb 0.00 in0.0 mm 0.00 in0.0 mm 0.00 in0.0 mm
12:25 AM 40.3°F4.6°C 28.7°F-1.8°C 63% 13.5 mph SSW21.7 kmh SSW 21.3 mph34.3 kmh 29.94 in1013.9 mb 0.00 in0.0 mm 0.00 in0.0 mm 0.00 in0.0 mm
12:20 AM 40.1°F4.5°C 28.5°F-1.9°C 63% 14.5 mph S23.3 kmh S 22.1 mph35.6 kmh 29.94 in1013.9 mb 0.00 in0.0 mm 0.00 in0.0 mm 0.00 in0.0 mm
12:15 AM 39.9°F4.4°C 29.1°F-1.6°C 65% 15.7 mph SSE25.3 kmh SSE 22.1 mph35.6 kmh 29.94 in1013.9 mb 0.00 in0.0 mm 0.00 in0.0 mm 0.00 in0.0 mm
12:10 AM 39.7°F4.3°C 29.0°F-1.7°C 65% 15.1 mph S24.3 kmh S 22.1 mph35.6 kmh 29.93 in1013.5 mb 0.00 in0.0 mm 0.00 in0.0 mm 0.00 in0.0 mm
12:05 AM 39.7°F4.3°C 29.0°F-1.7°C 65% 14.8 mph SSW23.8 kmh SSW 25.9 mph41.7 kmh 29.93 in1013.5 mb 0.00 in0.0 mm 0.00 in0.0 mm 0.00 in0.0 mm
12:00 AM 39.2°F4.0°C 29.5°F-1.4°C 68% 13.3 mph S21.4 kmh S 25.9 mph41.7 kmh 29.93 in1013.5 mb 0.00 in0.0 mm 0.00 in0.0 mm 0.00 in0.0 mm